Archival Weather

Norman Y Mineta San Jose Intl

San Jose, California (KSJC)

Report from: Saturday, February 24, 2024 1:53 PM PST
Current time: Monday, June 24, 2024 2:10 AM PDT

Current weather – Weather history – Daily summaries
Weather forecast

Temperature23.3°C (73.9°F)
Dew point5.0°C (41.0°F)
Winds 4 kts (2.1 m/s, 4.6 mph) Vrb
Winds variableWinds variable
Visibility10 mi. (16.1 km)
Clouds Few clouds 9,000 ft. (2,743 m)
Few clouds 15,000 ft. (4,572 m)
Few clouds 25,000 ft. (7,620 m)
Altimeter30.00 in.Hg (1016 mB)
Relative humidity31 %
Density altitude1,006 ft. (307 m)
Sea-level pressure101.6 kPa (1016 mB, 30.00 in.Hg)
Remarks Automated weather observing station with precipitation discriminator
Flight conditions Visual Meteorological Conditions
Raw dataKSJC 242153Z VRB04KT 10SM FEW090 FEW150 FEW250 23/05 A3000 RMK AO2 SLP159 T02330050
An error has occurred. This application may no longer respond until reloaded. Reload 🗙